sensor_id;sensor_type;location;lat;lon;timestamp;P1;durP1;ratioP1;P2;durP2;ratioP2
18338;SDS011;9295;44.484;11.240;2023-05-27T00:00:45;12.80;;;8.13;;
18338;SDS011;9295;44.484;11.240;2023-05-27T00:03:13;17.60;;;9.50;;
18338;SDS011;9295;44.484;11.240;2023-05-27T00:05:42;15.50;;;8.07;;
18338;SDS011;9295;44.484;11.240;2023-05-27T00:08:12;14.37;;;8.27;;
18338;SDS011;9295;44.484;11.240;2023-05-27T00:10:41;10.10;;;7.30;;
18338;SDS011;9295;44.484;11.240;2023-05-27T00:13:09;15.57;;;8.10;;
18338;SDS011;9295;44.484;11.240;2023-05-27T00:15:39;13.40;;;8.70;;
18338;SDS011;9295;44.484;11.240;2023-05-27T00:18:09;10.10;;;7.50;;
18338;SDS011;9295;44.484;11.240;2023-05-27T00:20:39;15.07;;;7.77;;
18338;SDS011;9295;44.484;11.240;2023-05-27T00:23:08;13.23;;;7.80;;
18338;SDS011;9295;44.484;11.240;2023-05-27T00:25:38;10.67;;;8.97;;
18338;SDS011;9295;44.484;11.240;2023-05-27T00:28:06;9.80;;;7.67;;
18338;SDS011;9295;44.484;11.240;2023-05-27T00:30:35;10.73;;;8.00;;
18338;SDS011;9295;44.484;11.240;2023-05-27T00:33:04;9.60;;;7.80;;
18338;SDS011;9295;44.484;11.240;2023-05-27T00:35:32;11.80;;;7.87;;
18338;SDS011;9295;44.484;11.240;2023-05-27T00:38:03;16.63;;;8.23;;
18338;SDS011;9295;44.484;11.240;2023-05-27T00:40:35;10.50;;;7.77;;
18338;SDS011;9295;44.484;11.240;2023-05-27T00:43:08;10.67;;;8.30;;
18338;SDS011;9295;44.484;11.240;2023-05-27T00:45:36;17.30;;;8.90;;
18338;SDS011;9295;44.484;11.240;2023-05-27T00:48:05;11.83;;;8.47;;
18338;SDS011;9295;44.484;11.240;2023-05-27T00:50:35;12.60;;;7.60;;
18338;SDS011;9295;44.484;11.240;2023-05-27T00:53:04;12.63;;;7.53;;
18338;SDS011;9295;44.484;11.240;2023-05-27T00:55:34;12.70;;;7.97;;
18338;SDS011;9295;44.484;11.240;2023-05-27T00:58:04;11.47;;;7.80;;
18338;SDS011;9295;44.484;11.240;2023-05-27T01:00:35;11.83;;;8.60;;
18338;SDS011;9295;44.484;11.240;2023-05-27T01:03:05;11.60;;;8.00;;
18338;SDS011;9295;44.484;11.240;2023-05-27T01:05:35;12.90;;;8.77;;
18338;SDS011;9295;44.484;11.240;2023-05-27T01:08:05;11.90;;;7.77;;
18338;SDS011;9295;44.484;11.240;2023-05-27T01:10:42;10.50;;;8.07;;
18338;SDS011;9295;44.484;11.240;2023-05-27T01:13:18;9.00;;;7.23;;
18338;SDS011;9295;44.484;11.240;2023-05-27T01:15:54;16.90;;;9.77;;
18338;SDS011;9295;44.484;11.240;2023-05-27T01:18:27;22.03;;;11.03;;
18338;SDS011;9295;44.484;11.240;2023-05-27T01:21:02;17.30;;;11.10;;
18338;SDS011;9295;44.484;11.240;2023-05-27T01:23:35;19.83;;;10.13;;
18338;SDS011;9295;44.484;11.240;2023-05-27T01:26:05;14.73;;;11.23;;
18338;SDS011;9295;44.484;11.240;2023-05-27T01:28:33;17.70;;;10.00;;
18338;SDS011;9295;44.484;11.240;2023-05-27T01:31:04;9.97;;;8.40;;
18338;SDS011;9295;44.484;11.240;2023-05-27T01:33:37;20.00;;;8.63;;
18338;SDS011;9295;44.484;11.240;2023-05-27T01:36:10;14.20;;;9.27;;
18338;SDS011;9295;44.484;11.240;2023-05-27T01:38:43;15.53;;;8.53;;
18338;SDS011;9295;44.484;11.240;2023-05-27T01:41:14;13.47;;;8.60;;
18338;SDS011;9295;44.484;11.240;2023-05-27T01:43:43;16.63;;;9.50;;
18338;SDS011;9295;44.484;11.240;2023-05-27T01:46:12;14.77;;;11.50;;
18338;SDS011;9295;44.484;11.240;2023-05-27T01:48:43;16.40;;;10.33;;
18338;SDS011;9295;44.484;11.240;2023-05-27T01:51:11;21.30;;;12.90;;
18338;SDS011;9295;44.484;11.240;2023-05-27T01:53:40;17.13;;;12.60;;
18338;SDS011;9295;44.484;11.240;2023-05-27T01:56:09;21.60;;;14.80;;
18338;SDS011;9295;44.484;11.240;2023-05-27T01:58:38;20.83;;;14.90;;
18338;SDS011;9295;44.484;11.240;2023-05-27T02:01:06;25.70;;;14.57;;
18338;SDS011;9295;44.484;11.240;2023-05-27T02:03:35;21.43;;;13.77;;
18338;SDS011;9295;44.484;11.240;2023-05-27T02:06:04;21.00;;;13.77;;
18338;SDS011;9295;44.484;11.240;2023-05-27T02:08:33;26.60;;;13.97;;
18338;SDS011;9295;44.484;11.240;2023-05-27T02:11:02;19.20;;;12.13;;
18338;SDS011;9295;44.484;11.240;2023-05-27T02:13:32;17.17;;;12.53;;
18338;SDS011;9295;44.484;11.240;2023-05-27T02:16:01;20.37;;;10.87;;
18338;SDS011;9295;44.484;11.240;2023-05-27T02:18:29;18.50;;;11.10;;
18338;SDS011;9295;44.484;11.240;2023-05-27T02:20:59;15.07;;;10.23;;
18338;SDS011;9295;44.484;11.240;2023-05-27T02:23:32;20.23;;;10.57;;
18338;SDS011;9295;44.484;11.240;2023-05-27T02:26:01;21.20;;;11.27;;
18338;SDS011;9295;44.484;11.240;2023-05-27T02:28:29;21.03;;;10.03;;
18338;SDS011;9295;44.484;11.240;2023-05-27T02:30:59;12.60;;;10.10;;
18338;SDS011;9295;44.484;11.240;2023-05-27T02:33:28;18.47;;;10.60;;
18338;SDS011;9295;44.484;11.240;2023-05-27T02:35:57;19.17;;;10.60;;
18338;SDS011;9295;44.484;11.240;2023-05-27T02:38:27;15.73;;;10.40;;
18338;SDS011;9295;44.484;11.240;2023-05-27T02:40:55;11.73;;;9.43;;
18338;SDS011;9295;44.484;11.240;2023-05-27T02:43:24;14.33;;;10.77;;
18338;SDS011;9295;44.484;11.240;2023-05-27T02:45:53;16.07;;;11.47;;
18338;SDS011;9295;44.484;11.240;2023-05-27T02:48:23;16.23;;;10.60;;
18338;SDS011;9295;44.484;11.240;2023-05-27T02:50:53;18.63;;;12.07;;
18338;SDS011;9295;44.484;11.240;2023-05-27T02:53:21;13.50;;;9.93;;
18338;SDS011;9295;44.484;11.240;2023-05-27T02:55:49;23.83;;;12.10;;
18338;SDS011;9295;44.484;11.240;2023-05-27T02:58:19;18.10;;;11.77;;
18338;SDS011;9295;44.484;11.240;2023-05-27T03:00:47;21.40;;;12.03;;
18338;SDS011;9295;44.484;11.240;2023-05-27T03:03:15;17.90;;;11.70;;
18338;SDS011;9295;44.484;11.240;2023-05-27T03:05:46;18.10;;;12.73;;
18338;SDS011;9295;44.484;11.240;2023-05-27T03:08:15;18.43;;;12.67;;
18338;SDS011;9295;44.484;11.240;2023-05-27T03:10:43;26.93;;;12.70;;
18338;SDS011;9295;44.484;11.240;2023-05-27T03:13:12;20.37;;;13.10;;
18338;SDS011;9295;44.484;11.240;2023-05-27T03:15:40;18.43;;;12.67;;
18338;SDS011;9295;44.484;11.240;2023-05-27T03:18:09;17.33;;;11.77;;
18338;SDS011;9295;44.484;11.240;2023-05-27T03:20:37;15.50;;;11.97;;
18338;SDS011;9295;44.484;11.240;2023-05-27T03:23:09;14.23;;;11.70;;
18338;SDS011;9295;44.484;11.240;2023-05-27T03:25:37;14.80;;;10.67;;
18338;SDS011;9295;44.484;11.240;2023-05-27T03:28:06;17.23;;;12.30;;
18338;SDS011;9295;44.484;11.240;2023-05-27T03:30:34;13.77;;;10.37;;
18338;SDS011;9295;44.484;11.240;2023-05-27T03:33:03;16.80;;;10.40;;
18338;SDS011;9295;44.484;11.240;2023-05-27T03:35:35;17.70;;;11.27;;
18338;SDS011;9295;44.484;11.240;2023-05-27T03:38:04;20.40;;;11.40;;
18338;SDS011;9295;44.484;11.240;2023-05-27T03:40:34;18.93;;;11.07;;
18338;SDS011;9295;44.484;11.240;2023-05-27T03:43:06;21.33;;;11.97;;
18338;SDS011;9295;44.484;11.240;2023-05-27T03:45:35;21.53;;;11.63;;
18338;SDS011;9295;44.484;11.240;2023-05-27T03:48:04;19.90;;;12.13;;
18338;SDS011;9295;44.484;11.240;2023-05-27T03:50:33;22.67;;;11.10;;
18338;SDS011;9295;44.484;11.240;2023-05-27T03:53:02;17.17;;;11.00;;
18338;SDS011;9295;44.484;11.240;2023-05-27T03:55:31;17.43;;;10.83;;
18338;SDS011;9295;44.484;11.240;2023-05-27T03:58:02;15.30;;;10.50;;
18338;SDS011;9295;44.484;11.240;2023-05-27T04:00:32;20.07;;;10.80;;
18338;SDS011;9295;44.484;11.240;2023-05-27T04:03:02;19.70;;;12.13;;
18338;SDS011;9295;44.484;11.240;2023-05-27T04:05:30;27.10;;;12.07;;
18338;SDS011;9295;44.484;11.240;2023-05-27T04:08:01;18.00;;;11.10;;
18338;SDS011;9295;44.484;11.240;2023-05-27T04:10:30;18.67;;;11.93;;
18338;SDS011;9295;44.484;11.240;2023-05-27T04:12:59;18.30;;;11.23;;
18338;SDS011;9295;44.484;11.240;2023-05-27T04:15:29;19.40;;;11.57;;
18338;SDS011;9295;44.484;11.240;2023-05-27T04:17:57;16.37;;;11.20;;
18338;SDS011;9295;44.484;11.240;2023-05-27T04:20:28;23.43;;;12.20;;
18338;SDS011;9295;44.484;11.240;2023-05-27T04:23:04;22.67;;;13.00;;
18338;SDS011;9295;44.484;11.240;2023-05-27T04:25:32;18.30;;;12.90;;
18338;SDS011;9295;44.484;11.240;2023-05-27T04:28:05;19.93;;;12.00;;
18338;SDS011;9295;44.484;11.240;2023-05-27T04:30:39;16.47;;;12.70;;
18338;SDS011;9295;44.484;11.240;2023-05-27T04:33:22;15.70;;;12.27;;
18338;SDS011;9295;44.484;11.240;2023-05-27T04:35:50;19.47;;;12.50;;
18338;SDS011;9295;44.484;11.240;2023-05-27T04:38:22;20.57;;;12.67;;
18338;SDS011;9295;44.484;11.240;2023-05-27T04:40:58;16.70;;;12.90;;
18338;SDS011;9295;44.484;11.240;2023-05-27T04:43:49;17.80;;;12.80;;
18338;SDS011;9295;44.484;11.240;2023-05-27T04:46:22;17.17;;;12.80;;
18338;SDS011;9295;44.484;11.240;2023-05-27T04:48:52;16.80;;;12.47;;
18338;SDS011;9295;44.484;11.240;2023-05-27T04:51:20;17.53;;;12.93;;
18338;SDS011;9295;44.484;11.240;2023-05-27T04:53:49;15.43;;;12.53;;
18338;SDS011;9295;44.484;11.240;2023-05-27T04:56:21;20.07;;;13.40;;
18338;SDS011;9295;44.484;11.240;2023-05-27T04:58:50;20.03;;;13.67;;
18338;SDS011;9295;44.484;11.240;2023-05-27T05:01:24;18.27;;;12.07;;
18338;SDS011;9295;44.484;11.240;2023-05-27T05:04:06;21.03;;;12.93;;
18338;SDS011;9295;44.484;11.240;2023-05-27T05:06:50;17.93;;;11.40;;
18338;SDS011;9295;44.484;11.240;2023-05-27T05:09:19;21.27;;;11.87;;
18338;SDS011;9295;44.484;11.240;2023-05-27T05:11:49;19.13;;;11.13;;
18338;SDS011;9295;44.484;11.240;2023-05-27T05:14:17;11.73;;;9.23;;
18338;SDS011;9295;44.484;11.240;2023-05-27T05:16:47;14.23;;;8.60;;
18338;SDS011;9295;44.484;11.240;2023-05-27T05:19:16;13.63;;;8.20;;
18338;SDS011;9295;44.484;11.240;2023-05-27T05:21:45;14.00;;;8.57;;
18338;SDS011;9295;44.484;11.240;2023-05-27T05:24:16;22.47;;;8.20;;
18338;SDS011;9295;44.484;11.240;2023-05-27T05:26:44;13.27;;;7.80;;
18338;SDS011;9295;44.484;11.240;2023-05-27T05:29:13;15.40;;;7.40;;
18338;SDS011;9295;44.484;11.240;2023-05-27T05:31:41;12.23;;;6.83;;
18338;SDS011;9295;44.484;11.240;2023-05-27T05:34:15;18.13;;;6.37;;
18338;SDS011;9295;44.484;11.240;2023-05-27T05:36:43;13.17;;;6.10;;
18338;SDS011;9295;44.484;11.240;2023-05-27T05:39:12;15.03;;;6.23;;
18338;SDS011;9295;44.484;11.240;2023-05-27T05:41:46;16.90;;;6.13;;
18338;SDS011;9295;44.484;11.240;2023-05-27T05:44:17;11.70;;;5.57;;
18338;SDS011;9295;44.484;11.240;2023-05-27T05:46:47;16.50;;;6.07;;
18338;SDS011;9295;44.484;11.240;2023-05-27T05:49:18;20.17;;;5.73;;
18338;SDS011;9295;44.484;11.240;2023-05-27T05:51:47;11.60;;;6.20;;
18338;SDS011;9295;44.484;11.240;2023-05-27T05:54:16;10.30;;;5.50;;
18338;SDS011;9295;44.484;11.240;2023-05-27T05:56:49;9.97;;;5.63;;
18338;SDS011;9295;44.484;11.240;2023-05-27T05:59:18;10.10;;;5.57;;
18338;SDS011;9295;44.484;11.240;2023-05-27T06:01:47;14.33;;;5.60;;
18338;SDS011;9295;44.484;11.240;2023-05-27T06:04:18;10.10;;;5.50;;
18338;SDS011;9295;44.484;11.240;2023-05-27T06:06:47;13.10;;;5.60;;
18338;SDS011;9295;44.484;11.240;2023-05-27T06:09:42;9.17;;;5.40;;
18338;SDS011;9295;44.484;11.240;2023-05-27T06:12:18;13.33;;;6.20;;
18338;SDS011;9295;44.484;11.240;2023-05-27T06:14:47;7.53;;;5.60;;
18338;SDS011;9295;44.484;11.240;2023-05-27T06:17:25;10.03;;;6.20;;
18338;SDS011;9295;44.484;11.240;2023-05-27T06:19:55;14.73;;;6.47;;
18338;SDS011;9295;44.484;11.240;2023-05-27T06:22:23;12.40;;;5.90;;
18338;SDS011;9295;44.484;11.240;2023-05-27T06:25:12;12.93;;;6.87;;
18338;SDS011;9295;44.484;11.240;2023-05-27T06:27:55;11.50;;;6.30;;
18338;SDS011;9295;44.484;11.240;2023-05-27T06:30:23;16.03;;;6.43;;
18338;SDS011;9295;44.484;11.240;2023-05-27T06:32:53;11.80;;;6.33;;
18338;SDS011;9295;44.484;11.240;2023-05-27T06:35:25;8.90;;;6.60;;
18338;SDS011;9295;44.484;11.240;2023-05-27T06:37:53;9.90;;;6.13;;
18338;SDS011;9295;44.484;11.240;2023-05-27T06:40:22;13.97;;;6.63;;
18338;SDS011;9295;44.484;11.240;2023-05-27T06:42:52;12.70;;;6.97;;
18338;SDS011;9295;44.484;11.240;2023-05-27T06:45:31;12.67;;;7.47;;
18338;SDS011;9295;44.484;11.240;2023-05-27T06:48:12;13.27;;;7.20;;
18338;SDS011;9295;44.484;11.240;2023-05-27T06:50:43;13.20;;;6.53;;
18338;SDS011;9295;44.484;11.240;2023-05-27T06:53:12;12.33;;;6.50;;
18338;SDS011;9295;44.484;11.240;2023-05-27T06:56:01;12.70;;;5.90;;
18338;SDS011;9295;44.484;11.240;2023-05-27T06:58:48;9.63;;;6.67;;
18338;SDS011;9295;44.484;11.240;2023-05-27T07:01:18;19.37;;;6.60;;
18338;SDS011;9295;44.484;11.240;2023-05-27T07:03:53;10.93;;;6.60;;
18338;SDS011;9295;44.484;11.240;2023-05-27T07:06:35;13.87;;;5.50;;
18338;SDS011;9295;44.484;11.240;2023-05-27T07:09:04;9.40;;;6.07;;
18338;SDS011;9295;44.484;11.240;2023-05-27T07:11:34;8.77;;;6.07;;
18338;SDS011;9295;44.484;11.240;2023-05-27T07:14:07;12.30;;;6.83;;
18338;SDS011;9295;44.484;11.240;2023-05-27T07:16:38;14.53;;;7.30;;
18338;SDS011;9295;44.484;11.240;2023-05-27T07:19:08;13.07;;;7.53;;
18338;SDS011;9295;44.484;11.240;2023-05-27T07:21:50;11.90;;;7.47;;
18338;SDS011;9295;44.484;11.240;2023-05-27T07:24:21;12.83;;;7.20;;
18338;SDS011;9295;44.484;11.240;2023-05-27T07:26:51;15.63;;;7.70;;
18338;SDS011;9295;44.484;11.240;2023-05-27T07:29:21;20.00;;;7.33;;
18338;SDS011;9295;44.484;11.240;2023-05-27T07:31:52;15.73;;;7.70;;
18338;SDS011;9295;44.484;11.240;2023-05-27T07:34:31;86.57;;;8.20;;
18338;SDS011;9295;44.484;11.240;2023-05-27T07:37:01;14.30;;;7.30;;
18338;SDS011;9295;44.484;11.240;2023-05-27T07:39:31;11.40;;;7.27;;
18338;SDS011;9295;44.484;11.240;2023-05-27T07:41:59;10.87;;;7.40;;
18338;SDS011;9295;44.484;11.240;2023-05-27T07:44:29;16.03;;;7.50;;
18338;SDS011;9295;44.484;11.240;2023-05-27T07:46:58;15.10;;;6.97;;
18338;SDS011;9295;44.484;11.240;2023-05-27T07:49:27;12.80;;;7.63;;
18338;SDS011;9295;44.484;11.240;2023-05-27T07:52:12;14.53;;;8.20;;
18338;SDS011;9295;44.484;11.240;2023-05-27T07:54:41;11.17;;;7.93;;
18338;SDS011;9295;44.484;11.240;2023-05-27T07:57:23;19.50;;;8.03;;
18338;SDS011;9295;44.484;11.240;2023-05-27T07:59:53;13.43;;;7.57;;
18338;SDS011;9295;44.484;11.240;2023-05-27T08:02:30;13.13;;;7.50;;
18338;SDS011;9295;44.484;11.240;2023-05-27T08:04:59;11.13;;;7.63;;
18338;SDS011;9295;44.484;11.240;2023-05-27T08:07:48;13.80;;;7.57;;
18338;SDS011;9295;44.484;11.240;2023-05-27T08:10:34;13.80;;;7.53;;
18338;SDS011;9295;44.484;11.240;2023-05-27T08:13:40;16.73;;;7.80;;
18338;SDS011;9295;44.484;11.240;2023-05-27T08:16:28;14.50;;;7.50;;
18338;SDS011;9295;44.484;11.240;2023-05-27T08:19:13;14.80;;;7.57;;
18338;SDS011;9295;44.484;11.240;2023-05-27T08:21:49;12.17;;;6.80;;
18338;SDS011;9295;44.484;11.240;2023-05-27T08:24:45;13.63;;;7.13;;
18338;SDS011;9295;44.484;11.240;2023-05-27T08:27:43;12.20;;;7.30;;
18338;SDS011;9295;44.484;11.240;2023-05-27T08:30:31;18.73;;;8.37;;
18338;SDS011;9295;44.484;11.240;2023-05-27T08:33:15;13.80;;;7.13;;
18338;SDS011;9295;44.484;11.240;2023-05-27T08:35:45;12.43;;;7.43;;
18338;SDS011;9295;44.484;11.240;2023-05-27T08:38:14;10.93;;;6.43;;
18338;SDS011;9295;44.484;11.240;2023-05-27T08:40:44;14.07;;;7.30;;
18338;SDS011;9295;44.484;11.240;2023-05-27T08:43:13;15.97;;;6.93;;
18338;SDS011;9295;44.484;11.240;2023-05-27T08:45:44;12.17;;;7.30;;
18338;SDS011;9295;44.484;11.240;2023-05-27T08:48:12;11.83;;;7.30;;
18338;SDS011;9295;44.484;11.240;2023-05-27T08:50:44;17.77;;;8.60;;
18338;SDS011;9295;44.484;11.240;2023-05-27T08:53:13;15.07;;;8.23;;
18338;SDS011;9295;44.484;11.240;2023-05-27T08:55:45;17.07;;;7.90;;
18338;SDS011;9295;44.484;11.240;2023-05-27T08:58:16;17.73;;;8.37;;
18338;SDS011;9295;44.484;11.240;2023-05-27T09:00:48;15.63;;;9.00;;
18338;SDS011;9295;44.484;11.240;2023-05-27T09:03:19;11.80;;;7.10;;
18338;SDS011;9295;44.484;11.240;2023-05-27T09:05:51;16.57;;;9.20;;
18338;SDS011;9295;44.484;11.240;2023-05-27T09:08:19;16.47;;;9.33;;
18338;SDS011;9295;44.484;11.240;2023-05-27T09:10:49;23.43;;;10.23;;
18338;SDS011;9295;44.484;11.240;2023-05-27T09:13:25;21.10;;;8.83;;
18338;SDS011;9295;44.484;11.240;2023-05-27T09:15:58;16.37;;;8.00;;
18338;SDS011;9295;44.484;11.240;2023-05-27T09:18:28;15.83;;;8.50;;
18338;SDS011;9295;44.484;11.240;2023-05-27T09:20:57;14.10;;;8.70;;
18338;SDS011;9295;44.484;11.240;2023-05-27T09:23:27;18.03;;;9.80;;
18338;SDS011;9295;44.484;11.240;2023-05-27T09:25:58;18.20;;;9.33;;
18338;SDS011;9295;44.484;11.240;2023-05-27T09:28:27;18.67;;;9.03;;
18338;SDS011;9295;44.484;11.240;2023-05-27T09:30:58;18.93;;;9.30;;
18338;SDS011;9295;44.484;11.240;2023-05-27T09:33:30;17.43;;;9.67;;
18338;SDS011;9295;44.484;11.240;2023-05-27T09:36:00;16.90;;;8.40;;
18338;SDS011;9295;44.484;11.240;2023-05-27T09:38:28;20.20;;;10.07;;
18338;SDS011;9295;44.484;11.240;2023-05-27T09:40:59;14.37;;;8.30;;
18338;SDS011;9295;44.484;11.240;2023-05-27T09:43:28;16.23;;;8.67;;
18338;SDS011;9295;44.484;11.240;2023-05-27T09:45:58;25.10;;;9.63;;
18338;SDS011;9295;44.484;11.240;2023-05-27T09:48:28;16.00;;;9.40;;
18338;SDS011;9295;44.484;11.240;2023-05-27T09:50:58;15.23;;;10.63;;
18338;SDS011;9295;44.484;11.240;2023-05-27T09:53:28;20.40;;;8.87;;
18338;SDS011;9295;44.484;11.240;2023-05-27T09:55:59;15.63;;;9.47;;
18338;SDS011;9295;44.484;11.240;2023-05-27T09:58:27;20.87;;;9.50;;
18338;SDS011;9295;44.484;11.240;2023-05-27T10:00:56;16.17;;;9.27;;
18338;SDS011;9295;44.484;11.240;2023-05-27T10:03:25;17.97;;;9.63;;
18338;SDS011;9295;44.484;11.240;2023-05-27T10:05:55;13.07;;;8.30;;
18338;SDS011;9295;44.484;11.240;2023-05-27T10:08:24;16.47;;;9.13;;
18338;SDS011;9295;44.484;11.240;2023-05-27T10:10:53;17.90;;;8.03;;
18338;SDS011;9295;44.484;11.240;2023-05-27T10:13:23;10.53;;;7.50;;
18338;SDS011;9295;44.484;11.240;2023-05-27T10:15:53;13.43;;;8.90;;
18338;SDS011;9295;44.484;11.240;2023-05-27T10:18:22;17.00;;;8.67;;
18338;SDS011;9295;44.484;11.240;2023-05-27T10:20:51;12.43;;;8.03;;
18338;SDS011;9295;44.484;11.240;2023-05-27T10:23:21;18.53;;;9.13;;
18338;SDS011;9295;44.484;11.240;2023-05-27T10:25:53;15.07;;;8.83;;
18338;SDS011;9295;44.484;11.240;2023-05-27T10:28:25;15.53;;;8.77;;
18338;SDS011;9295;44.484;11.240;2023-05-27T10:31:02;14.83;;;8.43;;
18338;SDS011;9295;44.484;11.240;2023-05-27T10:33:33;16.57;;;9.00;;
18338;SDS011;9295;44.484;11.240;2023-05-27T10:36:09;11.00;;;8.20;;
18338;SDS011;9295;44.484;11.240;2023-05-27T10:38:40;15.23;;;8.03;;
18338;SDS011;9295;44.484;11.240;2023-05-27T10:41:09;22.70;;;9.03;;
18338;SDS011;9295;44.484;11.240;2023-05-27T10:43:39;16.70;;;8.17;;
18338;SDS011;9295;44.484;11.240;2023-05-27T10:46:08;14.53;;;8.50;;
18338;SDS011;9295;44.484;11.240;2023-05-27T10:48:39;12.83;;;8.87;;
18338;SDS011;9295;44.484;11.240;2023-05-27T10:51:08;15.03;;;9.07;;
18338;SDS011;9295;44.484;11.240;2023-05-27T10:53:37;15.27;;;8.40;;
18338;SDS011;9295;44.484;11.240;2023-05-27T10:56:05;12.37;;;7.50;;
18338;SDS011;9295;44.484;11.240;2023-05-27T10:58:35;10.93;;;7.60;;
18338;SDS011;9295;44.484;11.240;2023-05-27T11:01:10;24.73;;;7.33;;
18338;SDS011;9295;44.484;11.240;2023-05-27T11:03:42;11.27;;;7.63;;
18338;SDS011;9295;44.484;11.240;2023-05-27T11:06:13;12.67;;;7.53;;
18338;SDS011;9295;44.484;11.240;2023-05-27T11:08:43;10.33;;;6.97;;
18338;SDS011;9295;44.484;11.240;2023-05-27T11:11:12;15.30;;;6.80;;
18338;SDS011;9295;44.484;11.240;2023-05-27T11:13:41;10.23;;;6.77;;
18338;SDS011;9295;44.484;11.240;2023-05-27T11:16:15;10.53;;;6.83;;
18338;SDS011;9295;44.484;11.240;2023-05-27T11:18:44;12.23;;;7.10;;
18338;SDS011;9295;44.484;11.240;2023-05-27T11:21:14;15.73;;;7.70;;
18338;SDS011;9295;44.484;11.240;2023-05-27T11:23:44;12.63;;;6.77;;
18338;SDS011;9295;44.484;11.240;2023-05-27T11:26:14;11.20;;;7.13;;
18338;SDS011;9295;44.484;11.240;2023-05-27T11:28:46;11.37;;;7.00;;
18338;SDS011;9295;44.484;11.240;2023-05-27T11:31:18;13.30;;;7.30;;
18338;SDS011;9295;44.484;11.240;2023-05-27T11:33:49;12.43;;;7.47;;
18338;SDS011;9295;44.484;11.240;2023-05-27T11:36:18;10.43;;;6.40;;
18338;SDS011;9295;44.484;11.240;2023-05-27T11:38:48;10.63;;;6.43;;
18338;SDS011;9295;44.484;11.240;2023-05-27T11:41:22;11.17;;;7.03;;
18338;SDS011;9295;44.484;11.240;2023-05-27T11:43:54;9.83;;;6.87;;
18338;SDS011;9295;44.484;11.240;2023-05-27T11:46:34;13.60;;;6.30;;
18338;SDS011;9295;44.484;11.240;2023-05-27T11:49:03;11.00;;;6.40;;
18338;SDS011;9295;44.484;11.240;2023-05-27T11:51:33;10.33;;;6.60;;
18338;SDS011;9295;44.484;11.240;2023-05-27T11:54:04;10.50;;;6.77;;
18338;SDS011;9295;44.484;11.240;2023-05-27T11:56:32;8.60;;;6.47;;
18338;SDS011;9295;44.484;11.240;2023-05-27T11:59:01;9.00;;;6.50;;
18338;SDS011;9295;44.484;11.240;2023-05-27T12:01:31;11.07;;;6.57;;
18338;SDS011;9295;44.484;11.240;2023-05-27T12:04:00;10.53;;;5.70;;
18338;SDS011;9295;44.484;11.240;2023-05-27T12:06:28;12.27;;;6.87;;
18338;SDS011;9295;44.484;11.240;2023-05-27T12:08:58;9.00;;;5.40;;
18338;SDS011;9295;44.484;11.240;2023-05-27T12:11:26;13.83;;;5.77;;
18338;SDS011;9295;44.484;11.240;2023-05-27T12:13:55;13.23;;;6.83;;
18338;SDS011;9295;44.484;11.240;2023-05-27T12:16:23;10.07;;;5.83;;
18338;SDS011;9295;44.484;11.240;2023-05-27T12:18:53;12.33;;;6.40;;
18338;SDS011;9295;44.484;11.240;2023-05-27T12:21:22;9.07;;;5.90;;
18338;SDS011;9295;44.484;11.240;2023-05-27T12:23:51;11.33;;;6.47;;
18338;SDS011;9295;44.484;11.240;2023-05-27T12:26:19;15.83;;;6.20;;
18338;SDS011;9295;44.484;11.240;2023-05-27T12:28:48;10.23;;;6.23;;
18338;SDS011;9295;44.484;11.240;2023-05-27T12:31:17;6.87;;;5.33;;
18338;SDS011;9295;44.484;11.240;2023-05-27T12:33:45;10.43;;;6.10;;
18338;SDS011;9295;44.484;11.240;2023-05-27T12:36:15;11.30;;;6.57;;
18338;SDS011;9295;44.484;11.240;2023-05-27T12:38:45;10.47;;;6.57;;
18338;SDS011;9295;44.484;11.240;2023-05-27T12:41:14;15.00;;;5.93;;
18338;SDS011;9295;44.484;11.240;2023-05-27T12:43:42;9.70;;;5.93;;
18338;SDS011;9295;44.484;11.240;2023-05-27T12:46:11;10.67;;;5.90;;
18338;SDS011;9295;44.484;11.240;2023-05-27T12:48:39;8.97;;;6.07;;
18338;SDS011;9295;44.484;11.240;2023-05-27T12:51:08;9.60;;;6.40;;
18338;SDS011;9295;44.484;11.240;2023-05-27T12:53:39;10.03;;;6.03;;
18338;SDS011;9295;44.484;11.240;2023-05-27T12:56:07;12.00;;;6.67;;
18338;SDS011;9295;44.484;11.240;2023-05-27T12:58:36;16.90;;;6.63;;
18338;SDS011;9295;44.484;11.240;2023-05-27T13:01:04;13.00;;;5.73;;
18338;SDS011;9295;44.484;11.240;2023-05-27T13:03:33;9.13;;;5.90;;
18338;SDS011;9295;44.484;11.240;2023-05-27T13:06:01;11.27;;;6.07;;
18338;SDS011;9295;44.484;11.240;2023-05-27T13:08:30;9.73;;;5.63;;
18338;SDS011;9295;44.484;11.240;2023-05-27T13:11:00;12.20;;;6.20;;
18338;SDS011;9295;44.484;11.240;2023-05-27T13:13:28;10.27;;;5.90;;
18338;SDS011;9295;44.484;11.240;2023-05-27T13:15:57;9.90;;;5.70;;
18338;SDS011;9295;44.484;11.240;2023-05-27T13:18:25;17.93;;;6.93;;
18338;SDS011;9295;44.484;11.240;2023-05-27T13:20:54;9.27;;;6.13;;
18338;SDS011;9295;44.484;11.240;2023-05-27T13:23:22;10.33;;;6.57;;
18338;SDS011;9295;44.484;11.240;2023-05-27T13:25:51;13.67;;;6.63;;
18338;SDS011;9295;44.484;11.240;2023-05-27T13:28:21;10.83;;;6.20;;
18338;SDS011;9295;44.484;11.240;2023-05-27T13:30:50;8.90;;;5.90;;
18338;SDS011;9295;44.484;11.240;2023-05-27T13:33:18;10.83;;;6.23;;
18338;SDS011;9295;44.484;11.240;2023-05-27T13:35:46;10.80;;;7.00;;
18338;SDS011;9295;44.484;11.240;2023-05-27T13:38:15;15.73;;;6.60;;
18338;SDS011;9295;44.484;11.240;2023-05-27T13:40:44;11.13;;;6.30;;
18338;SDS011;9295;44.484;11.240;2023-05-27T13:43:12;16.43;;;7.00;;
18338;SDS011;9295;44.484;11.240;2023-05-27T13:45:42;9.93;;;6.20;;
18338;SDS011;9295;44.484;11.240;2023-05-27T13:48:11;10.97;;;6.23;;
18338;SDS011;9295;44.484;11.240;2023-05-27T13:50:39;15.20;;;6.57;;
18338;SDS011;9295;44.484;11.240;2023-05-27T13:53:08;9.63;;;6.20;;
18338;SDS011;9295;44.484;11.240;2023-05-27T13:55:36;12.20;;;6.40;;
18338;SDS011;9295;44.484;11.240;2023-05-27T13:58:05;15.53;;;6.13;;
18338;SDS011;9295;44.484;11.240;2023-05-27T14:00:33;10.90;;;6.47;;
18338;SDS011;9295;44.484;11.240;2023-05-27T14:03:03;12.77;;;6.80;;
18338;SDS011;9295;44.484;11.240;2023-05-27T14:05:31;11.40;;;6.87;;
18338;SDS011;9295;44.484;11.240;2023-05-27T14:08:02;12.43;;;6.50;;
18338;SDS011;9295;44.484;11.240;2023-05-27T14:10:31;9.93;;;5.97;;
18338;SDS011;9295;44.484;11.240;2023-05-27T14:13:01;10.80;;;6.63;;
18338;SDS011;9295;44.484;11.240;2023-05-27T14:15:29;9.70;;;5.73;;
18338;SDS011;9295;44.484;11.240;2023-05-27T14:18:00;15.43;;;6.50;;
18338;SDS011;9295;44.484;11.240;2023-05-27T14:20:32;10.30;;;6.37;;
18338;SDS011;9295;44.484;11.240;2023-05-27T14:23:02;11.90;;;6.33;;
18338;SDS011;9295;44.484;11.240;2023-05-27T14:25:31;10.20;;;5.90;;
18338;SDS011;9295;44.484;11.240;2023-05-27T14:27:59;13.37;;;6.67;;
18338;SDS011;9295;44.484;11.240;2023-05-27T14:30:30;10.50;;;6.70;;
18338;SDS011;9295;44.484;11.240;2023-05-27T14:33:04;12.50;;;6.03;;
18338;SDS011;9295;44.484;11.240;2023-05-27T14:35:34;17.50;;;6.33;;
18338;SDS011;9295;44.484;11.240;2023-05-27T14:38:03;11.73;;;6.60;;
18338;SDS011;9295;44.484;11.240;2023-05-27T14:40:33;13.13;;;7.20;;
18338;SDS011;9295;44.484;11.240;2023-05-27T14:43:01;15.83;;;7.20;;
18338;SDS011;9295;44.484;11.240;2023-05-27T14:45:31;15.30;;;7.23;;
18338;SDS011;9295;44.484;11.240;2023-05-27T14:48:00;9.43;;;6.50;;
18338;SDS011;9295;44.484;11.240;2023-05-27T14:50:30;9.60;;;5.90;;
18338;SDS011;9295;44.484;11.240;2023-05-27T14:52:58;12.20;;;6.00;;
18338;SDS011;9295;44.484;11.240;2023-05-27T14:55:27;15.43;;;6.20;;